KHDE/HDE METAR and TAF weather

Enter ICAO airport designator
Station Type Date Time Source
KHDE METAR 2022/01/19 19:35 UTC NOAA

KHDE 191935Z AUTO 36012G23KT 10SM OVC075 M09/M19 A3046 RMK AO2 T10931191


Station Type Date Time Source
KHDE Decoded METAR 2022/01/19 19:35 UTC NOAA

Brewster Field Airport, NE, United States (KHDE) 40-27N 099-20W
Jan 19, 2022 - 02:35 PM EST / 2022.01.19 1935 UTC
Wind: from the N (360 degrees) at 14 MPH (12 KT) gusting to 26 MPH (23 KT):0
Visibility: 10 mile(s):0
Sky conditions: overcast
Temperature: 15.3 F (-9.3 C)
Windchill: 1 F (-17 C):1
Dew Point: -2.4 F (-19.1 C)
Relative Humidity: 44%
Pressure (altimeter): 30.46 in. Hg (1031 hPa)
ob: KHDE 191935Z AUTO 36012G23KT 10SM OVC075 M09/M19 A3046 RMK AO2 T10931191
cycle: 19

Station Type Date Time Source
KHDE TAF UTC NOAA

Error!

Example: see airport list